Aérodrome :







RETROUVEZ-NOUS SUR...

 
LOGIN :

S'inscrire | Disclaimer

   EN    FR    IT 

 









Légende :    VFR   VFR Marginal   IFR   IFR Intensif   IFR Très Intensif
Visi : 
Plafond : 
>= 8 km
>= 3000ft
5 à 8 km
1000 à 3000 ft
1500m à 5 km
500 à 1000 ft
800 à 1500m
200 à 500 ft
< 800m
< 200 ft
Symboles :   Orages  Brouillard  Fortes neiges  Fortes précipitations  Vent > 20 kt






- Altitude de l'aérodrome : 328 ft


KGFL - Floyd Bennett Memorial

DERNIER METAR :
  • 180253Z AUTO 03003KT 10SM CLR M09/M13 A3042 RMK AO2 SLP313 T10941133 53010

METARs EXPIRÉS :
  • 180153Z AUTO 08004KT 10SM CLR M06/M13 A3041 RMK AO2 SLP309 T10611128
  • 180053Z AUTO 04006KT 10SM CLR M05/M12 A3040 RMK AO2 SLP306 T10501122

TAF KGFL
Valide du 18 à 03h jusqu'au 19 à 00h UTC


180251Z 1803/1824 VRB03KT P6SM BKN200
FM180800 00000KT P6SM OVC080
FM181200 VRB03KT 5SM -SN BR SCT020 OVC035 WS020/16035KT
FM181400 19007KT 2SM -SN BR SCT008 OVC025 WS020/16035KT
FM181500 20008KT 3/4SM -SN BR BKN008 OVC015 WS020/17035KT
FM182100 20010G16KT 1 1/2SM -RASN BR OVC008



MET'MAP, la Météo Aéronautique d'un coup d'oeil ! - Copyright ORBIFLY Décembre 2007 - Disclaimer

ORBIFLY MET'MAP TEAM :

Programmation & Développement : Alexandra Zaïnal
Sur une idée originale de : Baudouin d'Aumeries
Assistance à la programmation : Marc-Olivier Méhu
Soutien technique & logistique : Manuel Goepfert

Contact : metmap@orbifly.com




SOURCES & CREDITS :

   NOAA